• Join FlightAware (Why Join?)
  • Login
  • US Flag 
03:13AM EDT


 

Airport Tracker/Info


-or-


 

Live Flight TrackerFlight Track Log ✈ GJS3710 ✈ 16-Aug-2013 ✈ KPHL - KORD

Flight Track Log - Related Links

Times and Time Zones

All times are in EDT time to prevent confusion due to time zone crossing. See the GJS3710 flight status page for this flight to view local times or setup timezone preferences in your user account.

Time Position Orientation Groundspeed Altitude Reporting Facility
EDT Latitude Longitude Course Direction KTS MPH feet Rate Location/Type
12:28PM 39.8667 -75.2833 255° West 164 189 900  Level Philadelphia TRACON
12:29PM 39.8500 -75.3667 255° West 245 282 3,000 2,160 Climbing Philadelphia TRACON
12:30PM 39.8667 -75.4333 288° West 270 311 5,700 2,700 Climbing Philadelphia TRACON
12:31PM 39.9500 -75.4667 343° North 280 322 8,500 2,640 Climbing Philadelphia TRACON
12:33PM 40.0333 -75.4964 345° North 304 350 11,300 2,040 Climbing New York Center
12:34PM 40.1114 -75.5261 344° North 318 366 12,900 1,080 Climbing New York Center
12:35PM 40.2142 -75.5631 345° North 351 404 13,500 1,260 Climbing New York Center
12:36PM 40.2972 -75.6747 314° West 386 444 15,500 1,740 Climbing New York Center
12:37PM 40.3717 -75.7836 312° West 386 444 17,000 1,080 Climbing New York Center
12:38PM 40.4419 -75.8978 309° West 396 456 17,700 1,020 Climbing New York Center
12:39PM 40.4611 -76.0275 281° West 395 455 19,100 1,440 Climbing New York Center
12:40PM 40.4861 -76.1714 283° West 395 455 20,600 1,440 Climbing New York Center
12:41PM 40.5064 -76.3178 280° West 405 466 22,000 1,380 Climbing New York Center
12:42PM 40.5306 -76.4644 282° West 410 472 23,400 1,140 Climbing New York Center
12:43PM 40.5544 -76.6139 282° West 415 478 24,300 900 Climbing New York Center
12:44PM 40.5678 -76.7681 277° West 420 483 25,300 900 Climbing New York Center
12:45PM 40.5825 -76.9278 277° West 431 496 26,200 900 Climbing New York Center
12:46PM 40.5969 -77.0850 277° West 431 496 27,200 1,020 Climbing New York Center
12:47PM 40.6114 -77.2450 277° West 431 496 28,300 780 Climbing New York Center
12:48PM 40.6233 -77.4019 276° West 436 502 28,800 660 Climbing New York Center
12:49PM 40.6383 -77.5811 276° West 442 509 29,700 660 Climbing New York Center
12:50PM 40.6547 -77.8133 275° West 456 525 30,600 540 Climbing Cleveland Center
12:51PM 40.6772 -77.9739 281° West 456 525 31,200 840 Climbing Cleveland Center
12:52PM 40.7017 -78.1344 281° West 456 525 32,300 900 Climbing Cleveland Center
12:53PM 40.7217 -78.2928 280° West 451 519 33,000 720 Climbing Cleveland Center
12:54PM 40.7436 -78.4483 281° West 446 513 33,800 1,200 Climbing Cleveland Center
12:55PM 40.7631 -78.6011 280° West 441 507 35,500 1,020 Climbing Cleveland Center
12:56PM 40.7842 -78.7514 281° West 431 496 35,900 480 Climbing Cleveland Center
12:57PM 40.8031 -78.9017 279° West 426 490 36,500 600 Climbing Cleveland Center
12:58PM 40.8283 -79.0519 283° West 426 490 37,100 600 Climbing Cleveland Center
12:59PM 40.8469 -79.2025 279° West 426 490 37,700 420 Climbing Cleveland Center
01:00PM 40.8672 -79.3531 280° West 426 490 38,000 120 Climbing Cleveland Center
01:01PM 40.8856 -79.5064 279° West 426 490 38,000  Level Cleveland Center
01:02PM 40.9036 -79.6572 279° West 426 490 38,000  Level Cleveland Center
01:03PM 40.9233 -79.8083 280° West 426 490 38,000  Level Cleveland Center
01:04PM 40.9411 -79.9619 279° West 426 490 38,000  Level Cleveland Center
01:05PM 40.9606 -80.1131 280° West 426 490 38,000  Level Cleveland Center
01:06PM 40.9797 -80.2697 279° West 426 490 38,000  Level Cleveland Center
01:07PM 40.9967 -80.4208 278° West 426 490 38,000  Level Cleveland Center
01:08PM 41.0178 -80.5914 279° West 426 490 38,000  Level Cleveland Center
01:09PM 41.0344 -80.7428 278° West 426 490 38,000  Level Cleveland Center
01:10PM 41.0506 -80.8942 278° West 426 490 38,000  Level Cleveland Center
01:11PM 41.0606 -81.0486 275° West 426 490 38,000  Level Cleveland Center
01:12PM 41.0661 -81.2000 273° West 426 490 38,000  Level Cleveland Center
01:13PM 41.0736 -81.3544 274° West 421 484 38,000  Level Cleveland Center
01:14PM 41.0703 -81.5058 268° West 421 484 38,000  Level Cleveland Center
01:15PM 41.0689 -81.6600 269° West 421 484 38,000  Level Cleveland Center
01:16PM 41.0675 -81.8006 269° West 421 484 38,000  Level Cleveland Center
01:17PM 41.0658 -81.9547 269° West 421 484 38,000  Level Cleveland Center
01:18PM 41.0639 -82.1089 269° West 421 484 38,000  Level Cleveland Center
01:19PM 41.0636 -82.2658 270° West 421 484 38,000  Level Cleveland Center
01:20PM 41.0589 -82.4364 268° West 421 484 38,000  Level Cleveland Center
01:21PM 41.0564 -82.5933 269° West 421 484 38,000  Level Cleveland Center
01:22PM 41.0533 -82.7503 269° West 421 484 38,000  Level Cleveland Center
01:23PM 41.0503 -82.9042 269° West 421 484 38,000  Level Cleveland Center
01:24PM 41.0472 -83.0611 269° West 427 491 38,000  Level Cleveland Center
01:25PM 41.0436 -83.2206 268° West 427 491 38,000  Level Cleveland Center
01:26PM 41.0397 -83.3747 268° West 427 491 38,000  Level Cleveland Center
01:27PM 41.0358 -83.5342 268° West 427 491 38,000  Level Cleveland Center
01:28PM 41.0297 -83.6908 267° West 432 497 38,000  Level Cleveland Center
01:29PM 41.0256 -83.8339 268° West 432 497 38,000  Level Cleveland Center
01:30PM 41.0253 -83.9881 270° West 432 497 38,000  Level Cleveland Center
01:31PM 41.0186 -84.1417 267° West 426 490 38,000  Level Cleveland Center
01:32PM 41.0133 -84.3039 268° West 426 490 38,000 -600 Level Cleveland Center
01:33PM 41.0703 -84.5097 290° West 430 495 36,700 -1,020 Descending Chicago Center
01:34PM 41.0931 -84.6611 281° West 417 480 35,700 -1,020 Descending Chicago Center
01:35PM 41.1128 -84.8147 280° West 420 483 34,700 -1,020 Descending Chicago Center
01:36PM 41.1361 -84.9706 281° West 428 493 33,700 -1,020 Descending Chicago Center
01:38PM 41.1581 -85.1292 280° West 433 498 32,700 -1,020 Descending Chicago Center
01:39PM 41.1814 -85.2936 281° West 444 511 31,600 -1,140 Descending Chicago Center
01:40PM 41.2108 -85.5008 281° West 466 536 30,400 -1,440 Descending Chicago Center
01:41PM 41.2336 -85.6703 280° West 467 537 28,700 -2,040 Descending Chicago Center
01:42PM 41.2544 -85.8283 280° West 439 505 26,300 -1,800 Descending Chicago Center
01:43PM 41.2753 -85.9889 280° West 439 505 25,000 -660 Descending Chicago Center
01:44PM 41.3111 -86.1497 287° West 449 517 25,000  Level Chicago Center
01:45PM 41.3519 -86.3111 289° West 457 526 25,100 -480 Climbing Chicago Center
01:46PM 41.3917 -86.4700 288° West 452 520 24,100 -2,040 Descending Chicago Center
01:47PM 41.4372 -86.6553 288° West 439 505 21,000 -2,640 Descending Chicago Center
01:48PM 41.4719 -86.7944 288° West 430 495 18,700 -2,040 Descending Chicago Center
01:49PM 41.5086 -86.9431 288° West 425 489 16,800 -2,580 Descending Chicago Center
01:50PM 41.5503 -87.1150 288° West 410 472 13,400 -2,400 Descending Chicago Center
01:51PM 41.5856 -87.2500 289° West 391 450 11,900 -720 Descending Chicago Center
01:52PM 41.6478 -87.3503 310° West 356 410 12,000 -240 Climbing Chicago Center
01:53PM 41.7094 -87.4519 309° West 354 407 11,500 -720 Descending Chicago Center
01:54PM 41.7600 -87.5650 301° West 361 415 10,500 -780 Descending Chicago Center
01:55PM 41.8172 -87.7042 299° West 360 414 9,900 -780 Descending Chicago Center
01:56PM 41.8697 -87.7817 312° West 294 338 9,000 -1,260 Descending Chicago Center
01:57PM 41.8853 -87.8822 282° West 286 329 7,300 -1,020 Descending Chicago Center
01:58PM 41.8842 -87.9839 269° West 279 321 6,900 -840 Descending Chicago Center
01:59PM 41.8833 -88.1000 269° West 277 319 5,600 -960 Descending Chicago TRACON
02:00PM 41.8847 -88.2003 271° West 267 307 5,000 -300 Descending Chicago Center
02:01PM 41.9328 -88.2258 338° Northwest 206 237 5,000 -480 Level Chicago Center
02:02PM 41.9647 -88.1828 45° Northeast 184 212 4,100 -840 Descending Chicago Center
02:03PM 41.9667 -88.1167 88° East 180 207 3,400 -960 Descending Chicago TRACON
02:04PM 41.9667 -88.0500 90° East 175 201 2,300 -900 Descending Chicago TRACON
02:05PM 41.9667 -88.0000 90° East 133 153 1,600 -720 Descending Chicago TRACON
02:06PM 41.9667 -87.9500 90° East 133 153 900 -720 Descending Chicago TRACON
02:08PM 41.9667 -87.9000 83° East  Level FlightAware Approximate
02:15PM 41.9817 -87.9067 83° East  Level Estimated